Taurus — WDB5562 — position and weather

sailwx.info

Track history (hours):
 
Tides and Currents Weather Stations Pressure Air Temp Water Temp Dewpoint Dewpoint Depression Visibility Wind Speed Wind Dir Waves Ship Positions

Taurus

Owner: Kirby Offshore Marine, LLC, Staten Island, NY. More information available from US FCC via Universal Licensing System and Coast Guard Vessel Documentation Center.

Last reported at 2014-Oct-25 12:34 UTC. Time now 2014-Oct-25 13:21 UTC.
Position N 40°43' W 073°58'.

Length 24 m.

Type: Tug. MMSI: 366910990.

Date/timePositionNaut miles runAvg speedWind from/ knotsBaromVisibWave heightAir tempDewpointWater temp
2014-Oct-25 12:34N 40°43' W 073°58'7 7.3
2014-Oct-25 11:33N 40°39' W 074°06'4 4.4
2014-Oct-25 10:33N 40°38' W 074°12'6 5.4
2014-Oct-25 09:33N 40°33' W 074°15'3 3.0
2014-Oct-25 08:33N 40°36' W 074°12'7 7.4
2014-Oct-25 07:33N 40°40' W 074°04'7 7.2
2014-Oct-25 06:33N 40°44' W 073°57'1 1.1
2014-Oct-25 05:33N 40°44' W 073°58'6 5.8
2014-Oct-25 04:33N 40°39' W 074°03'7 7.4
2014-Oct-25 03:33N 40°37' W 074°12'4 1.2
2014-Oct-25 00:16N 40°34' W 074°14'0 0.0
2014-Oct-24 14:27N 40°34' W 074°14'0 0.0
2014-Oct-24 13:32N 40°34' W 074°14'6 2.0
2014-Oct-24 10:34N 40°39' W 074°10'0 0.3
2014-Oct-24 09:09N 40°38' W 074°10'0 0.0
2014-Oct-24 08:15N 40°38' W 074°10'0 0.0
2014-Oct-24 07:09N 40°38' W 074°10'0 0.0
2014-Oct-24 06:30N 40°38' W 074°10'0 0.0
2014-Oct-24 05:33N 40°38' W 074°10'0 0.0
2014-Oct-24 04:33N 40°38' W 074°10'0 0.0
2014-Oct-24 03:32N 40°38' W 074°10'0 0.0
2014-Oct-24 01:33N 40°38' W 074°10'0 0.1
2014-Oct-24 00:33N 40°39' W 074°10'5 4.7
2014-Oct-23 23:34N 40°40' W 074°04'5 5.1
2014-Oct-23 22:33N 40°43' W 073°58'3 2.8
2014-Oct-23 21:34N 40°41' W 074°01'7 6.1
2014-Oct-23 20:25N 40°39' W 074°10'0 0.1
2014-Oct-23 19:33N 40°39' W 074°10'0 0.0
2014-Oct-23 18:34N 40°39' W 074°10'0 0.0
2014-Oct-23 17:33N 40°39' W 074°10'0 0.0
2014-Oct-23 16:33N 40°39' W 074°10'0 0.0
2014-Oct-23 09:24N 40°38' W 074°10'0 0.0
2014-Oct-23 04:30N 40°38' W 074°10'0 0.0
2014-Oct-23 03:09N 40°38' W 074°10'0 0.0
2014-Oct-23 02:24N 40°38' W 074°10'1 0.8
2014-Oct-23 01:30N 40°38' W 074°09'2 2.0
2014-Oct-23 00:33N 40°39' W 074°07'0 0.0
2014-Oct-22 23:34N 40°39' W 074°07'2 1.7
2014-Oct-22 22:34N 40°40' W 074°09'1 1.5
2014-Oct-22 21:33N 40°39' W 074°10'0 0.0
2014-Oct-22 20:33N 40°39' W 074°10'0 0.0
2014-Oct-22 19:34N 40°39' W 074°10'0 0.0
2014-Oct-22 18:34N 40°39' W 074°10'2 2.3
2014-Oct-22 17:33N 40°37' W 074°12'1 0.7
2014-Oct-22 16:07N 40°36' W 074°12'0 0.0
2014-Oct-22 14:24N 40°36' W 074°12'2 2.0
2014-Oct-22 13:31N 40°38' W 074°12'2 2.0
2014-Oct-22 12:33N 40°39' W 074°10'0 0.0
2014-Oct-22 11:33N 40°39' W 074°10'0 0.0
2014-Oct-22 10:33N 40°39' W 074°10'0 0.0
2014-Oct-22 09:34N 40°39' W 074°10'0 0.0
2014-Oct-22 08:33N 40°39' W 074°10'0 0.0
2014-Oct-22 07:34N 40°39' W 074°10'3 3.2
2014-Oct-22 06:33N 40°39' W 074°06'8 7.9
2014-Oct-22 05:33N 40°44' W 073°58'15 7.0
2014-Oct-22 03:26N 40°53' W 073°43'7 7.3
2014-Oct-22 02:27N 40°56' W 073°34'4 0.9
2014-Oct-21 22:17N 40°53' W 073°32'0 0.0
2014-Oct-21 20:28N 40°53' W 073°32'0 0.0
2014-Oct-21 18:15N 40°53' W 073°32'0 0.0
2014-Oct-21 17:28N 40°53' W 073°32'0 0.0
2014-Oct-21 16:33N 40°53' W 073°32'0 0.0
2014-Oct-21 15:30N 40°53' W 073°32'0 0.0
2014-Oct-21 14:25N 40°53' W 073°32'0 0.0
2014-Oct-21 13:25N 40°53' W 073°32'2 2.1
2014-Oct-21 12:31N 40°54' W 073°30'0 0.1
2014-Oct-21 11:33N 40°54' W 073°30'0 0.0
2014-Oct-21 10:31N 40°54' W 073°30'0 0.1
2014-Oct-21 09:27N 40°54' W 073°30'3 3.7
2014-Oct-21 08:33N 40°56' W 073°33'7 7.2
2014-Oct-21 07:33N 40°53' W 073°42'7 6.7
2014-Oct-21 06:30N 40°48' W 073°49'5 5.7
2014-Oct-21 05:33N 40°47' W 073°55'3 2.8
2014-Oct-21 04:33N 40°45' W 073°58'3 3.2
2014-Oct-21 03:33N 40°42' W 074°00'5 4.6
2014-Oct-21 02:33N 40°39' W 074°05'6 6.1
2014-Oct-21 01:33N 40°37' W 074°12'2 2.0
2014-Oct-21 00:29N 40°39' W 074°10'0 0.0
2014-Oct-20 23:33N 40°39' W 074°10'0 0.0
2014-Oct-20 22:33N 40°39' W 074°10'0 0.0
2014-Oct-20 21:33N 40°39' W 074°10'0 0.0
2014-Oct-20 20:33N 40°39' W 074°10'0 0.0
2014-Oct-20 19:33N 40°39' W 074°10'0 0.0
2014-Oct-20 18:33N 40°39' W 074°10'0 0.0
2014-Oct-20 17:33N 40°39' W 074°10'3 2.1
2014-Oct-20 16:12N 40°36' W 074°12'3 5.2
2014-Oct-20 15:33N 40°39' W 074°09'1 1.5
2014-Oct-20 14:33N 40°39' W 074°07'2 2.0
2014-Oct-20 13:33N 40°38' W 074°10'0 0.0
2014-Oct-20 12:33N 40°38' W 074°10'0 0.0
2014-Oct-20 11:33N 40°38' W 074°10'2 1.7
2014-Oct-20 10:33N 40°38' W 074°08'0 0.0
2014-Oct-20 09:33N 40°38' W 074°08'2 1.7
2014-Oct-20 08:33N 40°38' W 074°10'0 0.0
2014-Oct-20 07:33N 40°38' W 074°10'0 0.4
2014-Oct-20 06:32N 40°38' W 074°09'3 3.4
2014-Oct-20 05:33N 40°39' W 074°05'7 6.8
2014-Oct-20 04:33N 40°43' W 073°58'0 0.2
2014-Oct-20 03:34N 40°44' W 073°58'2 1.8
2014-Oct-20 02:34N 40°42' W 073°60'8 8.3
2014-Oct-20 01:33N 40°38' W 074°10'0 0.2
2014-Oct-20 00:30N 40°38' W 074°10'0 0.0
2014-Oct-19 23:33N 40°38' W 074°10'0 0.0
2014-Oct-19 22:33N 40°38' W 074°10'0 0.1
2014-Oct-19 21:34N 40°39' W 074°10'0 0.1
2014-Oct-19 20:33N 40°39' W 074°10'4 4.0
2014-Oct-19 19:31N 40°39' W 074°05'7 7.7
2014-Oct-19 18:33N 40°45' W 073°58'4 4.1
2014-Oct-19 17:30N 40°48' W 073°54'3 2.8
2014-Oct-19 16:33N 40°46' W 073°57'6 6.5
2014-Oct-19 15:33N 40°41' W 074°01'7 6.8
2014-Oct-19 14:33N 40°39' W 074°10'1 0.6
2014-Oct-19 13:33N 40°39' W 074°09'4 3.8
2014-Oct-19 12:33N 40°39' W 074°04'0 0.0
2014-Oct-19 11:33N 40°39' W 074°04'0 0.1
2014-Oct-19 10:34N 40°39' W 074°04'2 2.1
2014-Oct-19 09:29N 40°41' W 074°02'7 7.8
2014-Oct-19 08:33N 40°48' W 073°59'13 0.3
2014-Oct-17 19:27N 40°60' W 073°53'14 7.4
2014-Oct-17 17:33N 40°47' W 073°60'6 6.2
2014-Oct-17 16:33N 40°41' W 074°02'6 6.2
2014-Oct-17 15:33N 40°39' W 074°10'4 3.6
2014-Oct-17 14:25N 40°35' W 074°13'1 0.6
2014-Oct-17 13:23N 40°36' W 074°12'3 4.0
2014-Oct-17 12:33N 40°38' W 074°10'0 0.0
2014-Oct-17 11:33N 40°38' W 074°10'0 0.0
2014-Oct-17 10:33N 40°38' W 074°10'6 5.9
2014-Oct-17 09:30N 40°44' W 074°06'5 5.7
2014-Oct-17 08:33N 40°39' W 074°09'0 0.1
2014-Oct-17 07:33N 40°39' W 074°09'1 0.5
2014-Oct-17 05:33N 40°39' W 074°10'0 0.0
2014-Oct-17 04:32N 40°39' W 074°10'4 3.9
2014-Oct-17 03:32N 40°35' W 074°13'2 2.0
2014-Oct-17 02:22N 40°37' W 074°12'4 5.1
2014-Oct-17 01:33N 40°39' W 074°07'2 2.2
2014-Oct-17 00:33N 40°39' W 074°04'4 4.4
2014-Oct-16 23:33N 40°39' W 074°10'0 0.0
2014-Oct-16 22:33N 40°39' W 074°10'0 0.0
2014-Oct-16 21:33N 40°39' W 074°10'0 0.0
2014-Oct-16 20:33N 40°39' W 074°10'0 0.0
2014-Oct-16 19:33N 40°39' W 074°10'1 1.0
2014-Oct-16 18:33N 40°39' W 074°09'1 1.0
2014-Oct-16 17:33N 40°39' W 074°10'0 0.0
2014-Oct-16 16:33N 40°39' W 074°10'0 0.0
2014-Oct-16 15:33N 40°39' W 074°10'0 0.0
2014-Oct-16 14:33N 40°39' W 074°10'0 0.0
2014-Oct-16 13:33N 40°39' W 074°10'0 0.0
2014-Oct-16 12:33N 40°39' W 074°10'5 3.8
2014-Oct-16 11:19N 40°39' W 074°04'1 0.8
2014-Oct-16 10:33N 40°38' W 074°04'0 0.1
2014-Oct-16 09:29N 40°38' W 074°04'0 0.0
2014-Oct-16 08:04N 40°38' W 074°04'0 0.0
2014-Oct-16 07:32N 40°38' W 074°04'0 0.0
2014-Oct-16 06:27N 40°38' W 074°04'0 0.0
2014-Oct-16 05:26N 40°38' W 074°04'0 0.0
2014-Oct-16 03:33N 40°38' W 074°04'0 0.1
2014-Oct-16 02:26N 40°38' W 074°04'0 0.0
2014-Oct-16 00:13N 40°38' W 074°04'0 0.0
2014-Oct-15 22:25N 40°38' W 074°04'0 0.0
2014-Oct-15 21:33N 40°38' W 074°04'0 0.2
2014-Oct-15 20:32N 40°38' W 074°04'0 0.0
2014-Oct-15 19:33N 40°38' W 074°04'0 0.0
2014-Oct-15 18:32N 40°38' W 074°04'0 0.0
2014-Oct-15 17:33N 40°38' W 074°04'2 1.7
2014-Oct-15 16:33N 40°39' W 074°06'3 3.2
2014-Oct-15 15:33N 40°39' W 074°10'4 3.8
2014-Oct-15 14:33N 40°42' W 074°07'2 1.6
2014-Oct-15 13:33N 40°43' W 074°06'  
Track history (hours):
 
Tides and Currents Weather Stations Pressure Air Temp Water Temp Dewpoint Dewpoint Depression Visibility Wind Speed Wind Dir Waves Ship Positions

Taurus

Owner: Kirby Offshore Marine, LLC, Staten Island, NY. More information available from US FCC via Universal Licensing System and Coast Guard Vessel Documentation Center.

Last reported at 2014-Oct-25 12:34 UTC. Time now 2014-Oct-25 13:21 UTC.
Position N 40°43' W 073°58'.

Length 24 m.

Type: Tug. MMSI: 366910990.

Date/timePositionNaut miles runAvg speedWind from/ knotsBaromVisibWave heightAir tempDewpointWater temp
2014-Oct-25 12:34N 40°43' W 073°58'7 7.3
2014-Oct-25 11:33N 40°39' W 074°06'4 4.4
2014-Oct-25 10:33N 40°38' W 074°12'6 5.4
2014-Oct-25 09:33N 40°33' W 074°15'3 3.0
2014-Oct-25 08:33N 40°36' W 074°12'7 7.4
2014-Oct-25 07:33N 40°40' W 074°04'7 7.2
2014-Oct-25 06:33N 40°44' W 073°57'1 1.1
2014-Oct-25 05:33N 40°44' W 073°58'6 5.8
2014-Oct-25 04:33N 40°39' W 074°03'7 7.4
2014-Oct-25 03:33N 40°37' W 074°12'4 1.2
2014-Oct-25 00:16N 40°34' W 074°14'0 0.0
2014-Oct-24 14:27N 40°34' W 074°14'0 0.0
2014-Oct-24 13:32N 40°34' W 074°14'6 2.0
2014-Oct-24 10:34N 40°39' W 074°10'0 0.3
2014-Oct-24 09:09N 40°38' W 074°10'0 0.0
2014-Oct-24 08:15N 40°38' W 074°10'0 0.0
2014-Oct-24 07:09N 40°38' W 074°10'0 0.0
2014-Oct-24 06:30N 40°38' W 074°10'0 0.0
2014-Oct-24 05:33N 40°38' W 074°10'0 0.0
2014-Oct-24 04:33N 40°38' W 074°10'0 0.0
2014-Oct-24 03:32N 40°38' W 074°10'0 0.0
2014-Oct-24 01:33N 40°38' W 074°10'0 0.1
2014-Oct-24 00:33N 40°39' W 074°10'5 4.7
2014-Oct-23 23:34N 40°40' W 074°04'5 5.1
2014-Oct-23 22:33N 40°43' W 073°58'3 2.8
2014-Oct-23 21:34N 40°41' W 074°01'7 6.1
2014-Oct-23 20:25N 40°39' W 074°10'0 0.1
2014-Oct-23 19:33N 40°39' W 074°10'0 0.0
2014-Oct-23 18:34N 40°39' W 074°10'0 0.0
2014-Oct-23 17:33N 40°39' W 074°10'0 0.0
2014-Oct-23 16:33N 40°39' W 074°10'0 0.0
2014-Oct-23 09:24N 40°38' W 074°10'0 0.0
2014-Oct-23 04:30N 40°38' W 074°10'0 0.0
2014-Oct-23 03:09N 40°38' W 074°10'0 0.0
2014-Oct-23 02:24N 40°38' W 074°10'1 0.8
2014-Oct-23 01:30N 40°38' W 074°09'2 2.0
2014-Oct-23 00:33N 40°39' W 074°07'0 0.0
2014-Oct-22 23:34N 40°39' W 074°07'2 1.7
2014-Oct-22 22:34N 40°40' W 074°09'1 1.5
2014-Oct-22 21:33N 40°39' W 074°10'0 0.0
2014-Oct-22 20:33N 40°39' W 074°10'0 0.0
2014-Oct-22 19:34N 40°39' W 074°10'0 0.0
2014-Oct-22 18:34N 40°39' W 074°10'2 2.3
2014-Oct-22 17:33N 40°37' W 074°12'1 0.7
2014-Oct-22 16:07N 40°36' W 074°12'0 0.0
2014-Oct-22 14:24N 40°36' W 074°12'2 2.0
2014-Oct-22 13:31N 40°38' W 074°12'2 2.0
2014-Oct-22 12:33N 40°39' W 074°10'0 0.0
2014-Oct-22 11:33N 40°39' W 074°10'0 0.0
2014-Oct-22 10:33N 40°39' W 074°10'0 0.0
2014-Oct-22 09:34N 40°39' W 074°10'0 0.0
2014-Oct-22 08:33N 40°39' W 074°10'0 0.0
2014-Oct-22 07:34N 40°39' W 074°10'3 3.2
2014-Oct-22 06:33N 40°39' W 074°06'8 7.9
2014-Oct-22 05:33N 40°44' W 073°58'15 7.0
2014-Oct-22 03:26N 40°53' W 073°43'7 7.3
2014-Oct-22 02:27N 40°56' W 073°34'4 0.9
2014-Oct-21 22:17N 40°53' W 073°32'0 0.0
2014-Oct-21 20:28N 40°53' W 073°32'0 0.0
2014-Oct-21 18:15N 40°53' W 073°32'0 0.0
2014-Oct-21 17:28N 40°53' W 073°32'0 0.0
2014-Oct-21 16:33N 40°53' W 073°32'0 0.0
2014-Oct-21 15:30N 40°53' W 073°32'0 0.0
2014-Oct-21 14:25N 40°53' W 073°32'0 0.0
2014-Oct-21 13:25N 40°53' W 073°32'2 2.1
2014-Oct-21 12:31N 40°54' W 073°30'0 0.1
2014-Oct-21 11:33N 40°54' W 073°30'0 0.0
2014-Oct-21 10:31N 40°54' W 073°30'0 0.1
2014-Oct-21 09:27N 40°54' W 073°30'3 3.7
2014-Oct-21 08:33N 40°56' W 073°33'7 7.2
2014-Oct-21 07:33N 40°53' W 073°42'7 6.7
2014-Oct-21 06:30N 40°48' W 073°49'5 5.7
2014-Oct-21 05:33N 40°47' W 073°55'3 2.8
2014-Oct-21 04:33N 40°45' W 073°58'3 3.2
2014-Oct-21 03:33N 40°42' W 074°00'5 4.6
2014-Oct-21 02:33N 40°39' W 074°05'6 6.1
2014-Oct-21 01:33N 40°37' W 074°12'2 2.0
2014-Oct-21 00:29N 40°39' W 074°10'0 0.0
2014-Oct-20 23:33N 40°39' W 074°10'0 0.0
2014-Oct-20 22:33N 40°39' W 074°10'0 0.0
2014-Oct-20 21:33N 40°39' W 074°10'0 0.0
2014-Oct-20 20:33N 40°39' W 074°10'0 0.0
2014-Oct-20 19:33N 40°39' W 074°10'0 0.0
2014-Oct-20 18:33N 40°39' W 074°10'0 0.0
2014-Oct-20 17:33N 40°39' W 074°10'3 2.1
2014-Oct-20 16:12N 40°36' W 074°12'3 5.2
2014-Oct-20 15:33N 40°39' W 074°09'1 1.5
2014-Oct-20 14:33N 40°39' W 074°07'2 2.0
2014-Oct-20 13:33N 40°38' W 074°10'0 0.0
2014-Oct-20 12:33N 40°38' W 074°10'0 0.0
2014-Oct-20 11:33N 40°38' W 074°10'2 1.7
2014-Oct-20 10:33N 40°38' W 074°08'0 0.0
2014-Oct-20 09:33N 40°38' W 074°08'2 1.7
2014-Oct-20 08:33N 40°38' W 074°10'0 0.0
2014-Oct-20 07:33N 40°38' W 074°10'0 0.4
2014-Oct-20 06:32N 40°38' W 074°09'3 3.4
2014-Oct-20 05:33N 40°39' W 074°05'7 6.8
2014-Oct-20 04:33N 40°43' W 073°58'0 0.2
2014-Oct-20 03:34N 40°44' W 073°58'2 1.8
2014-Oct-20 02:34N 40°42' W 073°60'8 8.3
2014-Oct-20 01:33N 40°38' W 074°10'0 0.2
2014-Oct-20 00:30N 40°38' W 074°10'0 0.0
2014-Oct-19 23:33N 40°38' W 074°10'0 0.0
2014-Oct-19 22:33N 40°38' W 074°10'0 0.1
2014-Oct-19 21:34N 40°39' W 074°10'0 0.1
2014-Oct-19 20:33N 40°39' W 074°10'4 4.0
2014-Oct-19 19:31N 40°39' W 074°05'7 7.7
2014-Oct-19 18:33N 40°45' W 073°58'4 4.1
2014-Oct-19 17:30N 40°48' W 073°54'3 2.8
2014-Oct-19 16:33N 40°46' W 073°57'6 6.5
2014-Oct-19 15:33N 40°41' W 074°01'7 6.8
2014-Oct-19 14:33N 40°39' W 074°10'1 0.6
2014-Oct-19 13:33N 40°39' W 074°09'4 3.8
2014-Oct-19 12:33N 40°39' W 074°04'0 0.0
2014-Oct-19 11:33N 40°39' W 074°04'0 0.1
2014-Oct-19 10:34N 40°39' W 074°04'2 2.1
2014-Oct-19 09:29N 40°41' W 074°02'7 7.8
2014-Oct-19 08:33N 40°48' W 073°59'13 0.3
2014-Oct-17 19:27N 40°60' W 073°53'14 7.4
2014-Oct-17 17:33N 40°47' W 073°60'6 6.2
2014-Oct-17 16:33N 40°41' W 074°02'6 6.2
2014-Oct-17 15:33N 40°39' W 074°10'4 3.6
2014-Oct-17 14:25N 40°35' W 074°13'1 0.6
2014-Oct-17 13:23N 40°36' W 074°12'3 4.0
2014-Oct-17 12:33N 40°38' W 074°10'0 0.0
2014-Oct-17 11:33N 40°38' W 074°10'0 0.0
2014-Oct-17 10:33N 40°38' W 074°10'6 5.9
2014-Oct-17 09:30N 40°44' W 074°06'5 5.7
2014-Oct-17 08:33N 40°39' W 074°09'0 0.1
2014-Oct-17 07:33N 40°39' W 074°09'1 0.5
2014-Oct-17 05:33N 40°39' W 074°10'0 0.0
2014-Oct-17 04:32N 40°39' W 074°10'4 3.9
2014-Oct-17 03:32N 40°35' W 074°13'2 2.0
2014-Oct-17 02:22N 40°37' W 074°12'4 5.1
2014-Oct-17 01:33N 40°39' W 074°07'2 2.2
2014-Oct-17 00:33N 40°39' W 074°04'4 4.4
2014-Oct-16 23:33N 40°39' W 074°10'0 0.0
2014-Oct-16 22:33N 40°39' W 074°10'0 0.0
2014-Oct-16 21:33N 40°39' W 074°10'0 0.0
2014-Oct-16 20:33N 40°39' W 074°10'0 0.0
2014-Oct-16 19:33N 40°39' W 074°10'1 1.0
2014-Oct-16 18:33N 40°39' W 074°09'1 1.0
2014-Oct-16 17:33N 40°39' W 074°10'0 0.0
2014-Oct-16 16:33N 40°39' W 074°10'0 0.0
2014-Oct-16 15:33N 40°39' W 074°10'0 0.0
2014-Oct-16 14:33N 40°39' W 074°10'0 0.0
2014-Oct-16 13:33N 40°39' W 074°10'0 0.0
2014-Oct-16 12:33N 40°39' W 074°10'5 3.8
2014-Oct-16 11:19N 40°39' W 074°04'1 0.8
2014-Oct-16 10:33N 40°38' W 074°04'0 0.1
2014-Oct-16 09:29N 40°38' W 074°04'0 0.0
2014-Oct-16 08:04N 40°38' W 074°04'0 0.0
2014-Oct-16 07:32N 40°38' W 074°04'0 0.0
2014-Oct-16 06:27N 40°38' W 074°04'0 0.0
2014-Oct-16 05:26N 40°38' W 074°04'0 0.0
2014-Oct-16 03:33N 40°38' W 074°04'0 0.1
2014-Oct-16 02:26N 40°38' W 074°04'0 0.0
2014-Oct-16 00:13N 40°38' W 074°04'0 0.0
2014-Oct-15 22:25N 40°38' W 074°04'0 0.0
2014-Oct-15 21:33N 40°38' W 074°04'0 0.2
2014-Oct-15 20:32N 40°38' W 074°04'0 0.0
2014-Oct-15 19:33N 40°38' W 074°04'0 0.0
2014-Oct-15 18:32N 40°38' W 074°04'0 0.0
2014-Oct-15 17:33N 40°38' W 074°04'2 1.7
2014-Oct-15 16:33N 40°39' W 074°06'3 3.2
2014-Oct-15 15:33N 40°39' W 074°10'4 3.8
2014-Oct-15 14:33N 40°42' W 074°07'2 1.6
2014-Oct-15 13:33N 40°43' W 074°06'  

Dump ship's entire track history